Time;durP1;ratioP1;P1;durP2;ratioP2;P2;SDS_P1;SDS_P2;PMS_P1;PMS_P2;Temp;Humidity;BMP_temperature;BMP_pressure;BME280_temperature;BME280_humidity;BME280_pressure;Samples;Min_cycle;Max_cycle;Signal;HPM_P1;HPM_P2
2023/06/06 00:01:59;;;;;;;7.80;7.20;;;;;;;10.61;100.00;96318.81;7396934;19;20704;-75
2023/06/06 00:04:27;;;;;;;8.87;7.97;;;;;;;10.69;100.00;96341.75;7393387;19;20411;-75
2023/06/06 00:06:54;;;;;;;7.30;6.60;;;;;;;10.46;100.00;96301.69;7395209;19;20434;-74
2023/06/06 00:09:21;;;;;;;7.83;7.13;;;;;;;10.70;100.00;96337.25;7393910;19;20413;-74
2023/06/06 00:11:48;;;;;;;8.70;7.70;;;;;;;10.38;100.00;96312.31;7396776;19;20389;-74
2023/06/06 00:14:20;;;;;;;7.80;7.10;;;;;;;10.57;100.00;96318.69;7392577;19;20458;-75
2023/06/06 00:16:50;;;;;;;8.43;7.63;;;;;;;10.61;100.00;96309.00;7392547;19;20392;-75
2023/06/06 00:19:20;;;;;;;7.60;6.90;;;;;;;10.49;100.00;96324.03;7396940;19;20474;-75
2023/06/06 00:21:48;;;;;;;8.50;7.80;;;;;;;10.29;100.00;96284.13;7401921;19;20879;-74
2023/06/06 00:24:15;;;;;;;8.07;7.27;;;;;;;10.53;100.00;96312.50;7399691;19;20432;-75
2023/06/06 00:26:42;;;;;;;7.87;7.17;;;;;;;10.17;100.00;96272.69;7400515;19;20380;-74
2023/06/06 00:29:09;;;;;;;7.83;7.10;;;;;;;10.57;100.00;96318.69;7401350;19;20392;-74
2023/06/06 00:31:36;;;;;;;9.70;8.90;;;;;;;10.63;100.00;96306.03;7399702;19;20360;-75
2023/06/06 00:34:03;;;;;;;7.73;6.97;;;;;;;10.20;100.00;96270.19;7399171;19;20424;-74
2023/06/06 00:36:30;;;;;;;8.57;7.37;;;;;;;10.46;100.00;96279.75;7402111;19;20392;-75
2023/06/06 00:39:00;;;;;;;9.23;8.33;;;;;;;10.22;100.00;96283.09;7400301;19;20369;-74
2023/06/06 00:41:27;;;;;;;8.47;7.67;;;;;;;10.17;100.00;96288.56;7399179;19;20920;-74
2023/06/06 00:43:54;;;;;;;10.13;7.90;;;;;;;10.52;100.00;96300.38;7400639;19;20401;-75
2023/06/06 00:46:20;;;;;;;8.60;7.73;;;;;;;10.10;100.00;96235.44;7399370;19;20704;-74
2023/06/06 00:48:48;;;;;;;8.73;7.93;;;;;;;10.45;100.00;96271.06;7400594;19;20891;-74
2023/06/06 00:51:16;;;;;;;8.57;7.77;;;;;;;10.58;100.00;96280.56;7399545;19;20391;-74
2023/06/06 00:53:44;;;;;;;9.37;8.57;;;;;;;10.92;100.00;96308.50;7398911;19;20956;-74
2023/06/06 00:56:13;;;;;;;8.53;7.83;;;;;;;10.40;100.00;96265.97;7399621;19;20381;-74
2023/06/06 00:58:41;;;;;;;9.10;8.20;;;;;;;10.41;100.00;96272.03;7401206;19;20376;-74
2023/06/06 01:01:11;;;;;;;8.07;7.27;;;;;;;10.45;100.00;96297.50;7396384;19;20760;-74
2023/06/06 01:03:40;;;;;;;8.23;7.50;;;;;;;10.62;100.00;96291.25;7401602;19;20399;-75
2023/06/06 01:06:08;;;;;;;9.00;8.13;;;;;;;10.52;100.00;96266.00;7402068;19;20417;-75
2023/06/06 01:08:37;;;;;;;8.07;7.37;;;;;;;10.52;100.00;96257.31;7402137;19;20409;-74
2023/06/06 01:11:12;;;;;;;8.97;7.63;;;;;;;10.81;100.00;96282.81;7400709;19;20400;-74
2023/06/06 01:13:56;;;;;;;9.00;8.10;;;;;;;10.83;100.00;96283.28;7398473;19;20902;-74
2023/06/06 01:16:24;;;;;;;8.63;7.83;;;;;;;10.74;100.00;96275.44;7400627;19;20369;-74
2023/06/06 01:18:56;;;;;;;8.73;7.93;;;;;;;10.58;100.00;96256.78;7398779;19;20377;-74
2023/06/06 01:21:33;;;;;;;8.50;7.80;;;;;;;10.91;100.00;96279.75;7400277;19;20417;-74
2023/06/06 01:24:00;;;;;;;8.70;7.90;;;;;;;10.80;100.00;96268.03;7397386;19;20796;-74
2023/06/06 01:26:27;;;;;;;9.50;8.60;;;;;;;10.60;100.00;96269.66;7397052;19;20397;-74
2023/06/06 01:28:54;;;;;;;9.23;8.43;;;;;;;10.59;100.00;96244.34;7400130;19;20377;-75
2023/06/06 01:31:23;;;;;;;8.27;7.47;;;;;;;10.73;100.00;96291.63;7394983;19;20368;-75
2023/06/06 01:34:06;;;;;;;9.03;8.33;;;;;;;10.58;100.00;96263.94;7397366;19;20491;-75
2023/06/06 01:36:40;;;;;;;7.87;7.17;;;;;;;10.94;100.00;96279.84;7399138;19;20365;-75
2023/06/06 01:39:11;;;;;;;8.53;7.63;;;;;;;11.18;100.00;96294.22;7399474;19;20388;-75
2023/06/06 01:41:38;;;;;;;8.60;7.80;;;;;;;10.93;100.00;96277.53;7399822;19;20381;-75
2023/06/06 01:44:09;;;;;;;8.03;7.30;;;;;;;11.09;100.00;96296.22;7397795;19;20511;-74
2023/06/06 01:46:37;;;;;;;8.20;7.33;;;;;;;11.13;100.00;96297.84;7398436;19;20385;-74
2023/06/06 01:49:04;;;;;;;9.80;8.37;;;;;;;10.81;100.00;96265.06;7399467;19;20428;-74
2023/06/06 01:51:31;;;;;;;7.63;7.03;;;;;;;10.86;100.00;96285.25;7397580;19;20388;-74
2023/06/06 01:53:59;;;;;;;7.70;7.10;;;;;;;10.71;100.00;96275.31;7397628;19;20436;-74
2023/06/06 01:56:28;;;;;;;8.20;7.00;;;;;;;10.75;100.00;96276.19;7397620;19;20385;-74
2023/06/06 01:58:55;;;;;;;8.63;7.93;;;;;;;10.96;100.00;96298.06;7396381;19;20387;-74
2023/06/06 02:01:22;;;;;;;7.77;7.27;;;;;;;11.06;100.00;96304.78;7397454;19;20375;-74
2023/06/06 02:03:49;;;;;;;7.53;6.83;;;;;;;11.03;100.00;96281.63;7396720;19;20416;-74
2023/06/06 02:06:16;;;;;;;8.70;7.90;;;;;;;11.13;100.00;96271.38;7397886;19;20425;-75
2023/06/06 02:08:43;;;;;;;8.40;7.60;;;;;;;11.00;100.00;96288.38;7396342;19;20384;-74
2023/06/06 02:11:10;;;;;;;8.40;7.30;;;;;;;11.31;100.00;96297.63;7397724;19;20438;-74
2023/06/06 02:13:37;;;;;;;8.03;7.23;;;;;;;11.09;100.00;96273.16;7396822;19;20425;-74
2023/06/06 02:16:05;;;;;;;8.50;7.60;;;;;;;11.39;100.00;96302.06;7396140;19;20384;-74
2023/06/06 02:18:32;;;;;;;8.00;7.30;;;;;;;11.39;100.00;96302.06;7395677;19;20903;-74
2023/06/06 02:20:59;;;;;;;7.37;6.80;;;;;;;11.13;100.00;96268.75;7396931;19;20472;-74
2023/06/06 02:23:26;;;;;;;8.00;7.30;;;;;;;11.16;100.00;96249.56;7394858;19;20389;-74
2023/06/06 02:25:53;;;;;;;7.87;7.17;;;;;;;11.55;100.00;96290.44;7397496;19;20397;-74
2023/06/06 02:28:20;;;;;;;7.70;7.10;;;;;;;11.48;100.00;96292.09;7396340;19;20377;-74
2023/06/06 02:30:47;;;;;;;7.90;7.20;;;;;;;11.25;100.00;96273.28;7395456;19;20970;-74
2023/06/06 02:33:16;;;;;;;6.83;6.33;;;;;;;11.29;100.00;96283.97;7394639;19;20964;-74
2023/06/06 02:35:43;;;;;;;7.50;6.80;;;;;;;11.52;100.00;96293.78;7396189;19;20402;-74
2023/06/06 02:38:11;;;;;;;7.30;6.70;;;;;;;11.59;100.00;96295.84;7395423;19;20384;-74
2023/06/06 02:40:38;;;;;;;8.00;7.30;;;;;;;11.58;100.00;96302.25;7397418;19;20372;-74
2023/06/06 02:43:05;;;;;;;7.07;6.37;;;;;;;11.52;100.00;96301.72;7394028;19;20957;-74
2023/06/06 02:45:32;;;;;;;6.80;6.30;;;;;;;11.54;100.00;96302.16;7397398;19;20385;-74
2023/06/06 02:48:00;;;;;;;8.60;7.70;;;;;;;11.55;100.00;96297.63;7395904;19;20376;-74
2023/06/06 02:50:28;;;;;;;8.37;7.47;;;;;;;11.30;100.00;96286.28;7399039;19;20430;-74
2023/06/06 02:52:55;;;;;;;8.00;7.33;;;;;;;11.27;100.00;96291.47;7395219;19;20447;-74
2023/06/06 02:55:22;;;;;;;9.93;7.87;;;;;;;11.46;100.00;96297.72;7396229;19;20384;-74
2023/06/06 02:57:50;;;;;;;7.73;7.00;;;;;;;11.23;100.00;96270.19;7395358;19;20739;-74
2023/06/06 03:00:17;;;;;;;10.50;6.40;;;;;;;11.56;100.00;96299.16;7397289;19;20373;-74
2023/06/06 03:02:44;;;;;;;7.30;5.63;;;;;;;11.63;100.00;96291.44;7395205;19;20400;-74
2023/06/06 03:05:12;;;;;;;6.10;5.50;;;;;;;11.53;100.00;96290.03;7396761;19;20417;-75
2023/06/06 03:07:40;;;;;;;6.40;5.80;;;;;;;11.44;100.00;96288.59;7395785;19;20396;-75
2023/06/06 03:10:09;;;;;;;7.13;6.50;;;;;;;11.52;100.00;96293.00;7396860;19;20400;-75
2023/06/06 03:12:42;;;;;;;8.17;7.30;;;;;;;11.37;100.00;96262.69;7395342;19;20479;-75
2023/06/06 03:15:10;;;;;;;7.07;6.20;;;;;;;11.60;100.00;96289.44;7393514;19;20376;-75
2023/06/06 03:17:41;;;;;;;7.13;6.43;;;;;;;11.47;100.00;96285.25;7395843;19;20397;-75
2023/06/06 03:20:10;;;;;;;6.77;6.17;;;;;;;11.36;100.00;96269.09;7394152;19;20372;-75
2023/06/06 03:22:39;;;;;;;6.63;6.03;;;;;;;11.41;100.00;96279.44;7395347;19;20416;-75
2023/06/06 03:25:07;;;;;;;7.53;6.93;;;;;;;11.25;100.00;96278.56;7394145;19;20793;-75
2023/06/06 03:27:33;;;;;;;7.53;6.83;;;;;;;11.24;100.00;96269.84;7395793;19;20369;-74
2023/06/06 03:30:02;;;;;;;9.90;6.93;;;;;;;10.96;100.00;96268.97;7394158;19;20379;-74
2023/06/06 03:32:31;;;;;;;7.20;6.70;;;;;;;11.28;100.00;96287.72;7396922;19;20689;-75
2023/06/06 03:34:59;;;;;;;6.93;6.10;;;;;;;11.11;100.00;96288.72;7393391;19;20455;-75
2023/06/06 03:37:27;;;;;;;8.13;7.53;;;;;;;10.67;100.00;96246.09;7395787;19;20405;-75
2023/06/06 03:39:54;;;;;;;9.47;8.40;;;;;;;10.91;100.00;96271.81;7394015;19;20376;-75
2023/06/06 03:42:21;;;;;;;7.30;6.63;;;;;;;10.78;100.00;96257.03;7395614;19;20380;-75
2023/06/06 03:44:48;;;;;;;8.40;7.30;;;;;;;11.03;100.00;96269.19;7394733;19;20395;-75
2023/06/06 03:47:15;;;;;;;8.50;7.80;;;;;;;10.99;100.00;96267.53;7395796;19;20368;-74
2023/06/06 03:49:42;;;;;;;8.10;7.30;;;;;;;10.89;100.00;96269.50;7394405;19;20373;-74
2023/06/06 03:52:10;;;;;;;7.73;6.90;;;;;;;10.83;100.00;96267.41;7400537;19;20411;-74
2023/06/06 03:54:37;;;;;;;8.20;7.50;;;;;;;11.00;100.00;96287.59;7429007;19;20440;-74
2023/06/06 03:57:10;;;;;;;8.07;6.73;;;;;;;11.03;100.00;96302.78;7435685;19;20385;-74
2023/06/06 03:59:37;;;;;;;9.37;7.57;;;;;;;10.80;100.00;96279.38;7429268;19;20459;-74
2023/06/06 04:02:05;;;;;;;6.93;6.33;;;;;;;10.61;100.00;96227.03;7399939;19;20400;-74
2023/06/06 04:04:32;;;;;;;8.87;7.97;;;;;;;10.91;100.00;96259.34;7399894;19;20424;-74
2023/06/06 04:07:00;;;;;;;8.47;7.77;;;;;;;11.04;100.00;96262.78;7403274;19;20393;-74
2023/06/06 04:09:27;;;;;;;8.40;7.60;;;;;;;11.27;100.00;96286.94;7401263;19;20927;-74
2023/06/06 04:11:54;;;;;;;11.00;10.00;;;;;;;11.05;100.00;96285.50;7402540;19;20391;-74
2023/06/06 04:14:22;;;;;;;8.77;7.97;;;;;;;10.87;100.00;96258.47;7398998;19;20420;-74
2023/06/06 04:16:50;;;;;;;9.17;8.37;;;;;;;10.95;100.00;96276.13;7397619;19;20380;-74
2023/06/06 04:19:17;;;;;;;8.03;7.20;;;;;;;11.13;100.00;96295.22;7401617;19;20392;-74
2023/06/06 04:21:46;;;;;;;8.57;7.77;;;;;;;11.19;100.00;96290.47;7401302;19;20745;-74
2023/06/06 04:24:13;;;;;;;9.27;8.37;;;;;;;11.07;100.00;96272.69;7399236;19;20428;-74
2023/06/06 04:26:40;;;;;;;8.70;8.10;;;;;;;10.88;100.00;96241.50;7399675;19;20416;-74
2023/06/06 04:29:08;;;;;;;9.00;7.53;;;;;;;10.98;100.00;96260.69;7401206;19;20439;-74
2023/06/06 04:31:35;;;;;;;9.30;7.20;;;;;;;11.45;100.00;96292.78;7401370;19;20385;-74
2023/06/06 04:34:03;;;;;;;7.57;6.87;;;;;;;11.04;100.00;96272.59;7399423;19;20441;-74
2023/06/06 04:36:33;;;;;;;8.10;7.40;;;;;;;11.08;100.00;96262.88;7397822;19;20416;-74
2023/06/06 04:39:07;;;;;;;8.30;7.47;;;;;;;11.25;100.00;96271.41;7401558;19;20369;-74
2023/06/06 04:41:34;;;;;;;8.07;7.30;;;;;;;11.46;100.00;96289.03;7400085;19;20448;-73
2023/06/06 04:44:04;;;;;;;9.20;8.13;;;;;;;11.16;100.00;96285.84;7399631;19;20444;-73
2023/06/06 04:46:31;;;;;;;9.73;7.87;;;;;;;11.10;100.00;96285.28;7399851;19;20360;-74
2023/06/06 04:49:01;;;;;;;8.83;8.03;;;;;;;10.91;100.00;96248.78;7401032;19;20396;-74
2023/06/06 04:51:29;;;;;;;9.37;7.37;;;;;;;10.98;100.00;96250.13;7399693;19;20834;-74
2023/06/06 04:53:59;;;;;;;8.70;7.80;;;;;;;11.25;100.00;96292.56;7399854;19;20811;-74
2023/06/06 04:56:28;;;;;;;10.77;7.63;;;;;;;11.25;100.00;96284.63;7398773;19;20368;-73
2023/06/06 04:59:09;;;;;;;8.53;7.73;;;;;;;11.00;100.00;96269.06;7397984;19;20948;-73
2023/06/06 05:01:36;;;;;;;9.63;8.30;;;;;;;11.05;100.00;96284.72;7401863;19;20352;-74
2023/06/06 05:04:05;;;;;;;9.03;8.13;;;;;;;11.15;100.00;96295.66;7397008;19;20420;-74
2023/06/06 05:06:36;;;;;;;8.70;8.00;;;;;;;10.94;100.00;96295.72;7400032;19;20401;-74
2023/06/06 05:09:04;;;;;;;9.33;8.43;;;;;;;10.90;100.00;96292.19;7398690;19;20707;-74
2023/06/06 05:11:32;;;;;;;8.43;7.73;;;;;;;10.80;100.00;96236.31;7400454;19;20368;-74
2023/06/06 05:13:59;;;;;;;9.00;7.60;;;;;;;11.02;100.00;96270.28;7397707;19;20444;-74
2023/06/06 05:16:27;;;;;;;9.80;8.90;;;;;;;10.99;100.00;96270.94;7400199;19;20949;-74
2023/06/06 05:18:54;;;;;;;8.73;7.83;;;;;;;11.00;100.00;96274.38;7398334;19;20754;-74
2023/06/06 05:21:21;;;;;;;13.80;10.00;;;;;;;11.15;100.00;96290.34;7399972;19;20349;-74
2023/06/06 05:23:48;;;;;;;8.87;8.07;;;;;;;10.98;100.00;96274.69;7398434;19;20384;-74
2023/06/06 05:26:15;;;;;;;9.97;8.70;;;;;;;10.97;100.00;96267.09;7400467;19;20401;-74
2023/06/06 05:28:42;;;;;;;9.17;8.37;;;;;;;11.11;100.00;96283.41;7398664;19;20364;-74
2023/06/06 05:31:09;;;;;;;11.97;9.33;;;;;;;11.17;100.00;96266.19;7398642;19;20484;-74
2023/06/06 05:33:42;;;;;;;10.90;8.83;;;;;;;11.25;100.00;96291.81;7397169;19;20500;-74
2023/06/06 05:36:10;;;;;;;10.00;8.97;;;;;;;11.10;100.00;96287.94;7398918;19;20389;-74
2023/06/06 05:38:37;;;;;;;8.87;8.07;;;;;;;11.24;100.00;96282.31;7398269;19;20379;-74
2023/06/06 05:41:04;;;;;;;9.60;8.43;;;;;;;11.18;100.00;96280.97;7401326;19;20901;-74
2023/06/06 05:43:33;;;;;;;10.43;7.70;;;;;;;11.22;100.00;96280.00;7397315;19;20429;-74
2023/06/06 05:46:01;;;;;;;12.17;9.00;;;;;;;10.95;100.00;96267.41;7396598;19;20972;-74
2023/06/06 05:48:28;;;;;;;9.77;8.70;;;;;;;11.16;100.00;96278.66;7398739;19;20376;-74
2023/06/06 05:50:56;;;;;;;11.63;9.40;;;;;;;11.02;100.00;96294.09;7396551;19;20392;-74
2023/06/06 05:53:23;;;;;;;17.50;8.80;;;;;;;11.10;100.00;96285.28;7397730;19;20420;-74
2023/06/06 05:55:50;;;;;;;8.87;8.00;;;;;;;11.29;100.00;96299.84;7396328;19;20369;-74
2023/06/06 05:58:17;;;;;;;9.50;8.33;;;;;;;11.27;100.00;96276.34;7399502;19;20344;-74
2023/06/06 06:00:44;;;;;;;9.30;8.50;;;;;;;11.36;100.00;96278.91;7398679;19;20372;-74
2023/06/06 06:03:12;;;;;;;9.50;8.50;;;;;;;11.48;100.00;96294.75;7397383;19;20416;-74
2023/06/06 06:05:39;;;;;;;8.13;7.43;;;;;;;11.52;100.00;96307.00;7396426;19;20373;-74
2023/06/06 06:08:06;;;;;;;11.43;8.80;;;;;;;11.21;100.00;96289.03;7398178;19;20376;-74
2023/06/06 06:10:38;;;;;;;9.07;8.23;;;;;;;11.38;100.00;96308.44;7397003;19;20364;-74
2023/06/06 06:13:07;;;;;;;11.20;8.07;;;;;;;11.49;100.00;96314.84;7397548;19;20403;-74
2023/06/06 06:15:35;;;;;;;9.90;8.43;;;;;;;11.46;100.00;96318.91;7396186;19;20357;-74
2023/06/06 06:18:03;;;;;;;10.40;8.70;;;;;;;11.57;100.00;96287.47;7396590;19;20384;-74
2023/06/06 06:20:31;;;;;;;12.57;9.23;;;;;;;11.43;100.00;96326.75;7398375;19;20349;-74
2023/06/06 06:22:57;;;;;;;9.70;8.40;;;;;;;11.28;100.00;96312.31;7397424;19;20449;-74
2023/06/06 06:25:24;;;;;;;10.13;9.10;;;;;;;11.29;100.00;96299.84;7396746;19;20388;-74
2023/06/06 06:27:51;;;;;;;9.77;8.87;;;;;;;11.46;100.00;96323.44;7398202;19;20376;-74
2023/06/06 06:30:18;;;;;;;8.73;7.80;;;;;;;11.04;100.00;96222.31;7396317;19;20393;-74
2023/06/06 06:32:45;;;;;;;10.13;9.23;;;;;;;11.52;100.00;96314.19;7397609;19;20393;-74
2023/06/06 06:35:13;;;;;;;11.43;8.20;;;;;;;11.12;100.00;96283.09;7398022;19;20340;-74
2023/06/06 06:37:40;;;;;;;11.07;10.07;;;;;;;11.32;100.00;96315.06;7396424;19;20416;-74
2023/06/06 06:40:10;;;;;;;9.90;8.90;;;;;;;11.52;100.00;96327.41;7396131;19;20400;-74
2023/06/06 06:42:43;;;;;;;9.80;8.93;;;;;;;11.60;100.00;96331.03;7394066;19;20926;-74
2023/06/06 06:45:23;;;;;;;13.73;8.97;;;;;;;11.46;100.00;96289.78;7397183;19;20383;-74
2023/06/06 06:47:50;;;;;;;9.50;8.60;;;;;;;11.78;100.00;96319.13;7395266;19;20380;-74
2023/06/06 06:50:17;;;;;;;10.30;9.50;;;;;;;11.78;100.00;96330.50;7396882;19;20369;-74
2023/06/06 06:52:45;;;;;;;8.80;7.90;;;;;;;11.77;100.00;96320.22;7394470;19;20424;-74
2023/06/06 06:55:12;;;;;;;9.67;8.73;;;;;;;11.92;100.00;96338.13;7396849;19;20838;-74
2023/06/06 06:57:42;;;;;;;10.97;10.03;;;;;;;11.82;100.00;96323.44;7395074;19;20360;-74
2023/06/06 07:00:14;;;;;;;9.07;8.17;;;;;;;11.89;100.00;96330.06;7397018;19;20379;-74
2023/06/06 07:02:44;;;;;;;9.67;8.70;;;;;;;12.11;100.00;96346.22;7395329;19;20401;-74
2023/06/06 07:05:12;;;;;;;10.00;9.00;;;;;;;12.06;100.00;96343.06;7397003;19;20357;-74
2023/06/06 07:07:46;;;;;;;10.97;9.97;;;;;;;12.04;100.00;96318.78;7397211;19;20711;-74
2023/06/06 07:10:15;;;;;;;18.23;9.87;;;;;;;12.32;100.00;96347.97;7394033;19;20791;-74
2023/06/06 07:12:47;;;;;;;9.97;8.97;;;;;;;11.93;100.00;96326.41;7395877;19;20732;-74
2023/06/06 07:15:15;;;;;;;10.67;9.57;;;;;;;11.94;100.00;96343.84;7394261;19;20373;-74
2023/06/06 07:17:50;;;;;;;10.33;8.80;;;;;;;12.22;100.00;96341.25;7394210;19;20384;-74
2023/06/06 07:20:23;;;;;;;10.83;9.90;;;;;;;12.11;100.00;96334.88;7394459;19;20751;-74
2023/06/06 07:22:55;;;;;;;10.73;9.80;;;;;;;12.10;100.00;96338.63;7395313;19;20518;-74
2023/06/06 07:25:23;;;;;;;10.10;9.10;;;;;;;12.27;100.00;96337.56;7394831;19;20405;-74
2023/06/06 07:27:50;;;;;;;10.43;9.53;;;;;;;12.07;100.00;96329.47;7396053;19;20889;-74
2023/06/06 07:30:17;;;;;;;9.57;8.67;;;;;;;12.17;100.00;96333.53;7399066;19;20376;-74
2023/06/06 07:32:46;;;;;;;10.23;9.27;;;;;;;12.40;100.00;96344.38;7403559;19;20448;-74
2023/06/06 07:35:16;;;;;;;8.57;7.77;;;;;;;12.57;100.00;96353.97;7404172;19;20389;-74
2023/06/06 07:37:43;;;;;;;11.60;10.60;;;;;;;12.51;100.00;96332.19;7402871;19;20381;-74
2023/06/06 07:40:11;;;;;;;11.30;10.20;;;;;;;12.41;100.00;96332.66;7402483;19;20399;-74
2023/06/06 07:42:40;;;;;;;11.90;8.40;;;;;;;12.59;100.00;96351.72;7400439;19;20372;-75
2023/06/06 07:45:08;;;;;;;10.37;9.37;;;;;;;12.36;100.00;96346.94;7403817;19;20482;-74
2023/06/06 07:47:35;;;;;;;13.23;9.97;;;;;;;12.36;100.00;96323.09;7400993;19;20408;-74
2023/06/06 07:50:02;;;;;;;10.67;9.67;;;;;;;12.59;100.00;96349.06;7402124;19;20368;-74
2023/06/06 07:52:32;;;;;;;10.60;9.67;;;;;;;12.58;100.00;96328.97;7399995;19;20356;-74
2023/06/06 07:55:00;;;;;;;9.80;9.03;;;;;;;12.63;100.00;96318.88;7402767;19;20447;-74
2023/06/06 07:57:30;;;;;;;10.37;9.57;;;;;;;12.75;100.00;96317.28;7398454;19;20793;-74
2023/06/06 07:59:58;;;;;;;13.10;10.17;;;;;;;12.77;100.00;96350.31;7402227;19;20731;-74
2023/06/06 08:02:25;;;;;;;10.67;9.70;;;;;;;12.97;100.00;96359.19;7400682;19;20380;-74
2023/06/06 08:04:53;;;;;;;11.53;10.53;;;;;;;13.03;100.00;96342.66;7403696;19;20348;-74
2023/06/06 08:07:20;;;;;;;10.33;9.40;;;;;;;12.77;100.00;96333.63;7402509;19;20357;-74
2023/06/06 08:09:47;;;;;;;10.77;9.73;;;;;;;12.93;100.00;96359.06;7402031;19;20357;-74
2023/06/06 08:12:14;;;;;;;10.60;9.70;;;;;;;12.34;100.00;96272.28;7400849;19;20372;-74
2023/06/06 08:14:41;;;;;;;10.83;10.00;;;;;;;12.97;100.00;96333.41;7399363;19;20439;-74
2023/06/06 08:17:08;;;;;;;11.40;10.30;;;;;;;13.08;100.00;96362.09;7399643;19;20377;-74
2023/06/06 08:19:35;;;;;;;10.33;9.30;;;;;;;12.79;100.00;96334.81;7402592;19;20380;-74
2023/06/06 08:22:02;;;;;;;10.90;9.80;;;;;;;13.15;100.00;96336.50;7401850;19;20930;-74
2023/06/06 08:24:29;;;;;;;10.90;9.90;;;;;;;13.21;100.00;96342.34;7399133;19;20805;-74
2023/06/06 08:26:57;;;;;;;12.17;10.70;;;;;;;13.43;100.00;96354.25;7399847;19;20716;-74
2023/06/06 08:29:25;;;;;;;11.13;10.03;;;;;;;13.41;100.00;96362.56;7402177;19;20376;-74
2023/06/06 08:31:53;;;;;;;11.40;10.37;;;;;;;13.10;100.00;96320.06;7399812;19;20433;-74
2023/06/06 08:34:22;;;;;;;11.27;10.20;;;;;;;13.50;100.00;96363.19;7399235;19;20984;-74
2023/06/06 08:36:49;;;;;;;10.27;9.37;;;;;;;13.28;100.00;96337.22;7399320;19;20355;-74
2023/06/06 08:39:18;;;;;;;11.13;10.10;;;;;;;13.53;100.00;96353.75;7403232;19;20361;-74
2023/06/06 08:41:50;;;;;;;11.07;9.97;;;;;;;13.56;100.00;96359.13;7401065;19;20893;-74
2023/06/06 08:44:24;;;;;;;10.40;9.50;;;;;;;13.53;100.00;96327.19;7398055;19;20417;-74
2023/06/06 08:46:53;;;;;;;10.10;9.23;;;;;;;13.69;100.00;96364.34;7402251;19;20363;-74
2023/06/06 08:49:21;;;;;;;10.87;9.80;;;;;;;13.34;100.00;96332.41;7400851;19;20366;-74
2023/06/06 08:51:49;;;;;;;10.50;9.40;;;;;;;13.61;100.00;96350.88;7400237;19;20365;-74
2023/06/06 08:54:20;;;;;;;11.77;10.57;;;;;;;13.78;100.00;96352.44;7398366;19;20760;-74
2023/06/06 08:56:48;;;;;;;11.73;10.60;;;;;;;13.68;100.00;96368.13;7399549;19;20900;-74
2023/06/06 08:59:16;;;;;;;12.23;11.03;;;;;;;13.86;100.00;96367.41;7398757;19;20371;-74
2023/06/06 09:01:43;;;;;;;10.60;9.70;;;;;;;13.54;100.00;96350.75;7400586;19;20415;-74
2023/06/06 09:04:13;;;;;;;10.50;9.47;;;;;;;13.77;100.00;96364.19;7397254;19;20427;-74
2023/06/06 09:06:45;;;;;;;9.80;8.90;;;;;;;14.03;100.00;96341.56;7400660;19;20376;-74
2023/06/06 09:09:13;;;;;;;13.00;9.50;;;;;;;14.70;100.00;96379.44;7399311;19;20408;-74
2023/06/06 09:11:40;;;;;;;10.20;9.30;;;;;;;14.57;100.00;96378.81;7400756;19;20345;-74
2023/06/06 09:14:07;;;;;;;10.97;10.00;;;;;;;14.69;100.00;96380.53;7397029;19;20768;-75
2023/06/06 09:16:35;;;;;;;11.20;10.20;;;;;;;14.93;100.00;96396.22;7401693;19;20397;-74
2023/06/06 09:19:02;;;;;;;9.87;8.90;;;;;;;14.89;100.00;96382.06;7399376;19;20850;-74
2023/06/06 09:21:32;;;;;;;10.17;9.17;;;;;;;14.61;100.00;96349.59;7401054;19;20476;-74
2023/06/06 09:24:00;;;;;;;10.93;9.83;;;;;;;14.72;100.00;96356.69;7397293;19;20516;-74
2023/06/06 09:26:28;;;;;;;11.33;9.30;;;;;;;14.88;100.00;96372.56;7397383;19;20347;-74
2023/06/06 09:28:55;;;;;;;8.60;7.73;;;;;;;14.94;100.00;96381.00;7398906;19;20927;-74
2023/06/06 09:31:30;;;;;;;9.30;8.50;;;;;;;14.87;100.00;96396.88;7397257;19;20414;-75
2023/06/06 09:33:59;;;;;;;11.13;10.03;;;;;;;14.84;100.00;96393.03;7397946;19;20416;-74
2023/06/06 09:36:27;;;;;;;11.60;10.50;;;;;;;14.69;100.00;96397.31;7397744;19;20380;-74
2023/06/06 09:38:59;;;;;;;9.80;8.90;;;;;;;14.60;100.00;96364.03;7399604;19;20360;-74
2023/06/06 09:41:27;;;;;;;10.67;9.77;;;;;;;14.58;100.00;96383.03;7397564;19;20754;-74
2023/06/06 09:43:55;;;;;;;10.47;9.37;;;;;;;14.65;100.00;96385.81;7398957;19;20441;-74
2023/06/06 09:46:23;;;;;;;9.20;8.50;;;;;;;14.81;100.00;96353.00;7397525;19;20392;-74
2023/06/06 09:48:58;;;;;;;9.53;8.60;;;;;;;14.78;100.00;96347.28;7398925;19;20379;-74
2023/06/06 09:51:25;;;;;;;10.07;9.17;;;;;;;14.91;100.00;96344.44;7397069;19;20357;-72
2023/06/06 09:53:52;;;;;;;9.87;8.90;;;;;;;15.29;100.00;96375.56;7396945;19;20424;-72
2023/06/06 09:56:24;;;;;;;9.90;8.93;;;;;;;15.37;100.00;96387.88;7397515;19;20772;-72
2023/06/06 09:58:57;;;;;;;9.30;8.43;;;;;;;15.50;100.00;96377.81;7397420;19;20392;-72
2023/06/06 10:01:50;;;;;;;9.80;8.80;;;;;;;15.71;100.00;96358.72;7398454;19;21011;-73
2023/06/06 10:04:17;;;;;;;11.37;10.47;;;;;;;15.91;100.00;96368.19;7395805;19;20429;-74
2023/06/06 10:06:46;;;;;;;10.10;9.20;;;;;;;16.16;100.00;96387.97;7400530;19;20694;-74
2023/06/06 10:09:15;;;;;;;10.80;9.80;;;;;;;15.97;100.00;96372.06;7396970;19;20908;-74
2023/06/06 10:11:42;;;;;;;9.23;8.30;;;;;;;16.17;100.00;96370.06;7398498;19;20413;-74
2023/06/06 10:14:10;;;;;;;9.90;9.10;;;;;;;16.31;100.00;96380.16;7395910;19;20441;-75
2023/06/06 10:16:38;;;;;;;9.00;8.20;;;;;;;16.38;100.00;96373.00;7398628;19;20396;-75
2023/06/06 10:19:08;;;;;;;8.37;7.57;;;;;;;16.77;100.00;96365.47;7396819;19;20441;-73
2023/06/06 10:21:36;;;;;;;9.10;8.30;;;;;;;16.34;100.00;96363.41;7398410;19;20392;-73
2023/06/06 10:24:04;;;;;;;9.07;8.17;;;;;;;16.80;100.00;96358.63;7395845;19;20452;-73
2023/06/06 10:26:35;;;;;;;8.27;7.53;;;;;;;16.70;100.00;96373.44;7397023;19;20365;-73
2023/06/06 10:29:26;;;;;;;8.50;7.70;;;;;;;16.16;100.00;96325.81;7398668;19;20345;-73
2023/06/06 10:31:59;;;;;;;9.87;9.00;;;;;;;16.17;100.00;96373.50;7396536;19;20373;-75
2023/06/06 10:34:37;;;;;;;9.33;8.47;;;;;;;15.89;100.00;96370.41;7396539;19;20443;-75
2023/06/06 10:37:18;;;;;;;9.17;8.27;;;;;;;16.14;100.00;96378.78;7397947;19;20349;-75
2023/06/06 10:39:46;;;;;;;7.57;6.90;;;;;;;16.07;100.00;96373.34;7396338;19;20448;-74
2023/06/06 10:42:14;;;;;;;8.50;7.90;;;;;;;16.36;100.00;96358.50;7398638;19;20341;-76
2023/06/06 10:44:42;;;;;;;8.33;7.57;;;;;;;16.33;100.00;96375.22;7393816;19;20409;-76
2023/06/06 10:47:24;;;;;;;7.43;6.83;;;;;;;16.55;100.00;96387.69;7397387;19;20879;-76
2023/06/06 10:50:12;;;;;;;8.70;7.80;;;;;;;16.40;100.00;96388.66;7397930;19;20869;-76
2023/06/06 10:52:48;;;;;;;8.70;8.00;;;;;;;16.42;100.00;96389.81;7395071;19;20351;-77
2023/06/06 10:55:16;;;;;;;9.63;8.77;;;;;;;16.20;100.00;96377.34;7399493;19;20379;-76
2023/06/06 10:57:54;;;;;;;8.83;8.20;;;;;;;16.30;100.00;96384.72;7430378;19;20373;-76
2023/06/06 11:00:25;;;;;;;9.17;8.47;;;;;;;16.41;100.00;96347.47;7433686;19;20401;-75
2023/06/06 11:02:55;;;;;;;8.30;7.57;;;;;;;16.48;100.00;96369.69;7422931;19;20403;-75
2023/06/06 11:05:22;;;;;;;7.47;6.87;;;;;;;16.42;100.00;96386.38;7393955;19;20372;-75
2023/06/06 11:07:50;;;;;;;7.03;6.53;;;;;;;16.81;100.00;96384.97;7395696;19;20924;-75
2023/06/06 11:10:21;;;;;;;7.53;7.03;;;;;;;16.34;100.00;96366.09;7395717;19;20348;-74
2023/06/06 11:12:49;;;;;;;8.60;7.80;;;;;;;16.26;100.00;96378.56;7397076;19;20396;-73
2023/06/06 11:15:32;;;;;;;6.60;6.00;;;;;;;16.26;100.00;96378.56;7394211;19;20400;-73
2023/06/06 11:18:03;;;;;;;5.90;5.50;;;;;;;16.04;100.00;96366.84;7395075;19;20380;-72
2023/06/06 11:20:40;;;;;;;4.50;4.20;;;;;;;15.87;100.00;96370.78;7394889;19;20401;-72
2023/06/06 11:23:10;;;;;;;5.23;4.83;;;;;;;15.96;100.00;96375.88;7397306;19;20504;-73
2023/06/06 11:25:37;;;;;;;5.67;5.27;;;;;;;16.07;100.00;96386.69;7395276;19;20380;-73
2023/06/06 11:28:05;;;;;;;5.23;4.90;;;;;;;16.22;100.00;96386.53;7398568;19;20363;-73
2023/06/06 11:30:34;;;;;;;6.30;5.80;;;;;;;16.16;100.00;96389.84;7394990;19;20389;-73